EIN1CM EIDW-EGLL
Flight info
| Callsign | EIN1CM |
|---|---|
| Flight time | N/A |
| Altitude | 33000 |
| Route | ENDEQ3J ENDEQ Q36 NUGRA |
| Aircraft | A21N/M-SDE2E3FGHIJ1RWXY/LB1 |
Departure
| Time | 2026-05-01 15:00 |
|---|---|
| Airport | Dublin Airport (EIDW) |
Arrival
| Time | N/A |
|---|---|
| Airport | London Heathrow Airport (EGLL) |
| Time | Latitude | Longitude | Altitude | Speed | Heading |
|---|---|---|---|---|---|
| 2026-05-01 14:17 | 53.42318 | -6.24252 | 216 ft | 0 kts | 316° |
| 2026-05-01 14:45 | 53.42313 | -6.24244 | 216 ft | 4 kts | 314° |
| 2026-05-01 14:45 | 53.42296 | -6.24209 | 217 ft | 4 kts | 297° |
| 2026-05-01 14:46 | 53.42288 | -6.24167 | 219 ft | 4 kts | 272° |
| 2026-05-01 14:46 | 53.42311 | -6.24102 | 216 ft | 4 kts | 220° |
| 2026-05-01 14:46 | 53.42332 | -6.24074 | 216 ft | 4 kts | 214° |
| 2026-05-01 14:47 | 53.42341 | -6.24063 | 216 ft | 1 kts | 211° |
| 2026-05-01 14:50 | 53.42326 | -6.24082 | 216 ft | 6 kts | 215° |
| 2026-05-01 14:50 | 53.42193 | -6.24198 | 218 ft | 10 kts | 222° |
| 2026-05-01 14:51 | 53.42157 | -6.24292 | 219 ft | 10 kts | 263° |
| 2026-05-01 14:51 | 53.42171 | -6.24547 | 216 ft | 12 kts | 276° |
| 2026-05-01 14:52 | 53.42225 | -6.24763 | 224 ft | 10 kts | 338° |
| 2026-05-01 14:52 | 53.42292 | -6.24812 | 218 ft | 11 kts | 336° |
| 2026-05-01 14:52 | 53.42452 | -6.24926 | 218 ft | 14 kts | 336° |
| 2026-05-01 14:53 | 53.42543 | -6.24993 | 220 ft | 15 kts | 337° |
| 2026-05-01 14:53 | 53.42637 | -6.25062 | 218 ft | 14 kts | 335° |
| 2026-05-01 14:53 | 53.42708 | -6.25132 | 217 ft | 9 kts | 306° |
| 2026-05-01 14:53 | 53.42754 | -6.25215 | 223 ft | 11 kts | 335° |
| 2026-05-01 14:54 | 53.42831 | -6.25270 | 216 ft | 13 kts | 336° |
| 2026-05-01 14:54 | 53.42924 | -6.25336 | 221 ft | 15 kts | 336° |
| 2026-05-01 14:54 | 53.43029 | -6.25413 | 216 ft | 17 kts | 337° |
| 2026-05-01 14:54 | 53.43122 | -6.25481 | 218 ft | 13 kts | 336° |
| 2026-05-01 14:55 | 53.43210 | -6.25544 | 216 ft | 15 kts | 336° |
| 2026-05-01 14:55 | 53.43306 | -6.25614 | 223 ft | 15 kts | 336° |
| 2026-05-01 14:55 | 53.43366 | -6.25652 | 216 ft | 10 kts | 351° |
| 2026-05-01 14:55 | 53.43408 | -6.25573 | 216 ft | 11 kts | 90° |
| 2026-05-01 14:56 | 53.43403 | -6.25467 | 216 ft | 10 kts | 95° |
| 2026-05-01 14:56 | 53.43395 | -6.25335 | 216 ft | 13 kts | 95° |
| 2026-05-01 14:56 | 53.43386 | -6.25176 | 223 ft | 15 kts | 96° |
| 2026-05-01 14:56 | 53.43376 | -6.24992 | 216 ft | 17 kts | 95° |
| 2026-05-01 14:57 | 53.43368 | -6.24847 | 218 ft | 9 kts | 95° |
| 2026-05-01 14:57 | 53.43358 | -6.24611 | 216 ft | 6 kts | 74° |
| 2026-05-01 14:57 | 53.43391 | -6.24561 | 219 ft | 5 kts | 11° |
| 2026-05-01 14:58 | 53.43399 | -6.24561 | 221 ft | 0 kts | 1° |
| 2026-05-01 14:58 | 53.43414 | -6.24559 | 219 ft | 5 kts | 6° |
| 2026-05-01 14:59 | 53.43462 | -6.24550 | 218 ft | 9 kts | 6° |
| 2026-05-01 14:59 | 53.43523 | -6.24583 | 227 ft | 10 kts | 291° |
| 2026-05-01 14:59 | 53.43529 | -6.24715 | 225 ft | 13 kts | 276° |
| 2026-05-01 14:59 | 53.43552 | -6.25078 | 217 ft | 65 kts | 275° |
| 2026-05-01 15:00 | 53.43712 | -6.27934 | 433 ft | 151 kts | 273° |
| 2026-05-01 15:00 | 53.43818 | -6.29668 | 1013 ft | 152 kts | 277° |
| 2026-05-01 15:00 | 53.44358 | -6.31198 | 1502 ft | 165 kts | 321° |
| 2026-05-01 15:01 | 53.45387 | -6.32123 | 2009 ft | 171 kts | 318° |
| 2026-05-01 15:01 | 53.46072 | -6.33792 | 2392 ft | 184 kts | 294° |
| 2026-05-01 15:01 | 53.47051 | -6.35339 | 2997 ft | 212 kts | 333° |
| 2026-05-01 15:01 | 53.48572 | -6.35583 | 3742 ft | 229 kts | 4° |
| 2026-05-01 15:02 | 53.50168 | -6.35235 | 4682 ft | 235 kts | 12° |
| 2026-05-01 15:02 | 53.51187 | -6.34618 | 5314 ft | 237 kts | 30° |
| 2026-05-01 15:02 | 53.52640 | -6.31842 | 6291 ft | 252 kts | 73° |
| 2026-05-01 15:02 | 53.52845 | -6.28829 | 6775 ft | 269 kts | 96° |
| 2026-05-01 15:03 | 53.52706 | -6.25641 | 7569 ft | 277 kts | 98° |
| 2026-05-01 15:03 | 53.52574 | -6.22377 | 8415 ft | 283 kts | 98° |
| 2026-05-01 15:03 | 53.52471 | -6.19096 | 9381 ft | 287 kts | 97° |
| 2026-05-01 15:03 | 53.52385 | -6.15725 | 10360 ft | 292 kts | 97° |
| 2026-05-01 15:04 | 53.52303 | -6.12186 | 10835 ft | 315 kts | 97° |
| 2026-05-01 15:04 | 53.52210 | -6.08369 | 11275 ft | 335 kts | 99° |
| 2026-05-01 15:04 | 53.51827 | -6.04495 | 12043 ft | 339 kts | 107° |
| 2026-05-01 15:04 | 53.51271 | -6.00616 | 12908 ft | 343 kts | 108° |
| 2026-05-01 15:05 | 53.50695 | -5.96693 | 13802 ft | 348 kts | 108° |
| 2026-05-01 15:05 | 53.50112 | -5.92724 | 14590 ft | 352 kts | 108° |
| 2026-05-01 15:05 | 53.49524 | -5.88707 | 15396 ft | 355 kts | 109° |
| 2026-05-01 15:05 | 53.48937 | -5.84657 | 16198 ft | 359 kts | 108° |
| 2026-05-01 15:06 | 53.48402 | -5.80538 | 16994 ft | 363 kts | 107° |
| 2026-05-01 15:06 | 53.47881 | -5.76372 | 17788 ft | 366 kts | 107° |
| 2026-05-01 15:06 | 53.47356 | -5.72180 | 18546 ft | 369 kts | 107° |
| 2026-05-01 15:06 | 53.46822 | -5.67941 | 19209 ft | 373 kts | 107° |
| 2026-05-01 15:07 | 53.46283 | -5.63667 | 19849 ft | 376 kts | 107° |
| 2026-05-01 15:07 | 53.45736 | -5.59344 | 20483 ft | 380 kts | 107° |
| 2026-05-01 15:07 | 53.45184 | -5.54989 | 21108 ft | 384 kts | 107° |
| 2026-05-01 15:07 | 53.44646 | -5.50581 | 21734 ft | 389 kts | 104° |
| 2026-05-01 15:08 | 53.44416 | -5.46008 | 22349 ft | 397 kts | 98° |
| 2026-05-01 15:08 | 53.44313 | -5.41348 | 22956 ft | 402 kts | 97° |
| 2026-05-01 15:08 | 53.44215 | -5.36642 | 23564 ft | 406 kts | 98° |
| 2026-05-01 15:08 | 53.44107 | -5.31887 | 24095 ft | 409 kts | 98° |
| 2026-05-01 15:09 | 53.43990 | -5.27113 | 24600 ft | 412 kts | 98° |
| 2026-05-01 15:09 | 53.43868 | -5.22301 | 25099 ft | 415 kts | 98° |
| 2026-05-01 15:09 | 53.43740 | -5.17455 | 25585 ft | 418 kts | 98° |
| 2026-05-01 15:09 | 53.43602 | -5.12571 | 26061 ft | 420 kts | 98° |
| 2026-05-01 15:10 | 53.43446 | -5.07658 | 26532 ft | 423 kts | 98° |
| 2026-05-01 15:10 | 53.43121 | -4.97745 | 27447 ft | 429 kts | 98° |
| 2026-05-01 15:10 | 53.42959 | -4.92733 | 27887 ft | 432 kts | 98° |
| 2026-05-01 15:11 | 53.42795 | -4.87692 | 28313 ft | 435 kts | 98° |
| 2026-05-01 15:11 | 53.42463 | -4.77586 | 29138 ft | 440 kts | 98° |
| 2026-05-01 15:11 | 53.42290 | -4.72445 | 29578 ft | 442 kts | 98° |
| 2026-05-01 15:12 | 53.42116 | -4.67311 | 30142 ft | 441 kts | 98° |
| 2026-05-01 15:12 | 53.41764 | -4.57080 | 31083 ft | 439 kts | 98° |
| 2026-05-01 15:12 | 53.41585 | -4.51971 | 31527 ft | 438 kts | 98° |
| 2026-05-01 15:13 | 53.41031 | -4.36712 | 32802 ft | 437 kts | 98° |
| 2026-05-01 15:14 | 53.40644 | -4.26541 | 33179 ft | 437 kts | 98° |
| 2026-05-01 15:14 | 53.40062 | -4.11305 | 33167 ft | 437 kts | 98° |
| 2026-05-01 15:15 | 53.39260 | -3.90975 | 33156 ft | 437 kts | 98° |
| 2026-05-01 15:16 | 53.38410 | -3.70646 | 33155 ft | 438 kts | 98° |
| 2026-05-01 15:17 | 53.37234 | -3.60787 | 33151 ft | 428 kts | 116° |
| 2026-05-01 15:18 | 53.33687 | -3.47085 | 33161 ft | 428 kts | 118° |
| 2026-05-01 15:19 | 53.28966 | -3.28771 | 33164 ft | 429 kts | 117° |
| 2026-05-01 15:19 | 53.25408 | -3.15040 | 33167 ft | 429 kts | 117° |
| 2026-05-01 15:20 | 53.21826 | -3.01328 | 33170 ft | 430 kts | 117° |
| 2026-05-01 15:21 | 53.19430 | -2.92197 | 33172 ft | 430 kts | 117° |
| 2026-05-01 15:21 | 53.17019 | -2.83053 | 33168 ft | 430 kts | 117° |
| 2026-05-01 15:22 | 53.13441 | -2.69543 | 33158 ft | 423 kts | 117° |
| 2026-05-01 15:22 | 53.11016 | -2.60443 | 33163 ft | 432 kts | 117° |
| 2026-05-01 15:23 | 53.08591 | -2.51365 | 33154 ft | 432 kts | 117° |
| 2026-05-01 15:23 | 53.06142 | -2.42237 | 33145 ft | 432 kts | 117° |
| 2026-05-01 15:24 | 53.03557 | -2.33235 | 33146 ft | 429 kts | 126° |
| 2026-05-01 15:24 | 53.01699 | -2.29413 | 33146 ft | 422 kts | 139° |
| 2026-05-01 15:24 | 52.99402 | -2.26473 | 33151 ft | 416 kts | 149° |
| 2026-05-01 15:25 | 52.94511 | -2.21445 | 33143 ft | 411 kts | 151° |
| 2026-05-01 15:25 | 52.89636 | -2.16417 | 33150 ft | 418 kts | 150° |
| 2026-05-01 15:26 | 52.87193 | -2.13870 | 32886 ft | 413 kts | 150° |
| 2026-05-01 15:26 | 52.84758 | -2.11331 | 32608 ft | 414 kts | 150° |
| 2026-05-01 15:26 | 52.82325 | -2.08797 | 32336 ft | 412 kts | 150° |
| 2026-05-01 15:26 | 52.79906 | -2.06277 | 32073 ft | 410 kts | 150° |
| 2026-05-01 15:27 | 52.77504 | -2.03777 | 31812 ft | 407 kts | 150° |
| 2026-05-01 15:27 | 52.75107 | -2.01292 | 31554 ft | 405 kts | 150° |
| 2026-05-01 15:27 | 52.72727 | -1.98826 | 31297 ft | 402 kts | 150° |
| 2026-05-01 15:28 | 52.68015 | -1.93951 | 30796 ft | 398 kts | 150° |
| 2026-05-01 15:28 | 52.65677 | -1.91536 | 30450 ft | 394 kts | 150° |
| 2026-05-01 15:28 | 52.63367 | -1.89155 | 29951 ft | 391 kts | 151° |
| 2026-05-01 15:29 | 52.58786 | -1.84438 | 28826 ft | 385 kts | 150° |
| 2026-05-01 15:29 | 52.56523 | -1.82112 | 28295 ft | 383 kts | 151° |
| 2026-05-01 15:29 | 52.52046 | -1.77523 | 27309 ft | 376 kts | 150° |
| 2026-05-01 15:30 | 52.48367 | -1.73759 | 26445 ft | 373 kts | 150° |
| 2026-05-01 15:31 | 52.38944 | -1.64152 | 24311 ft | 366 kts | 150° |
| 2026-05-01 15:31 | 52.34617 | -1.59757 | 23247 ft | 365 kts | 150° |
| 2026-05-01 15:32 | 52.30331 | -1.55413 | 22190 ft | 361 kts | 151° |
| 2026-05-01 15:32 | 52.26080 | -1.51115 | 21159 ft | 358 kts | 151° |
| 2026-05-01 15:33 | 52.19946 | -1.44398 | 19803 ft | 351 kts | 142° |
| 2026-05-01 15:34 | 52.14544 | -1.36735 | 18873 ft | 337 kts | 142° |